Time;durP1;ratioP1;P1;durP2;ratioP2;P2;SDS_P1;SDS_P2;PMS_P1;PMS_P2;Temp;Humidity;BMP_temperature;BMP_pressure;BME280_temperature;BME280_humidity;BME280_pressure;Samples;Min_cycle;Max_cycle;Signal;HPM_P1;HPM_P2
2023/08/22 00:00:20;;;;;;;7.07;4.07;;;;;;;;;;5082880;28;20047;-64
2023/08/22 00:02:46;;;;;;;5.90;4.03;;;;;;;;;;5083996;28;20270;-64
2023/08/22 00:05:11;;;;;;;4.67;3.63;;;;;;;;;;5079860;28;20028;-64
2023/08/22 00:07:38;;;;;;;7.28;4.13;;;;;;;;;;5089371;28;20314;-65
2023/08/22 00:10:04;;;;;;;7.03;3.63;;;;;;;;;;5081932;28;20479;-65
2023/08/22 00:12:29;;;;;;;5.28;3.92;;;;;;;;;;5071387;28;20048;-64
2023/08/22 00:14:54;;;;;;;7.80;3.78;;;;;;;;;;5071496;28;20103;-64
2023/08/22 00:17:20;;;;;;;5.72;3.72;;;;;;;;;;5071162;28;20413;-65
2023/08/22 00:19:45;;;;;;;6.35;4.07;;;;;;;;;;5071498;28;20028;-66
2023/08/22 00:22:11;;;;;;;5.05;3.83;;;;;;;;;;5075389;28;20033;-65
2023/08/22 00:24:37;;;;;;;4.65;3.55;;;;;;;;;;5081704;28;20439;-65
2023/08/22 00:27:03;;;;;;;10.85;3.53;;;;;;;;;;5084188;28;20115;-66
2023/08/22 00:29:28;;;;;;;6.00;3.67;;;;;;;;;;5080882;28;20161;-65
2023/08/22 00:31:53;;;;;;;5.68;3.25;;;;;;;;;;5084510;28;20433;-65
2023/08/22 00:34:18;;;;;;;5.47;3.80;;;;;;;;;;5080466;28;20060;-65
2023/08/22 00:36:44;;;;;;;9.05;4.78;;;;;;;;;;5074066;28;20020;-65
2023/08/22 00:39:09;;;;;;;4.93;3.77;;;;;;;;;;5042411;28;20028;-65
2023/08/22 00:41:34;;;;;;;9.37;3.83;;;;;;;;;;5045277;28;20281;-65
2023/08/22 00:43:59;;;;;;;7.60;3.90;;;;;;;;;;5034174;28;20271;-65
2023/08/22 00:46:26;;;;;;;5.95;4.00;;;;;;;;;;5035102;28;20925;-65
2023/08/22 00:48:51;;;;;;;6.72;3.95;;;;;;;;;;5032224;28;20210;-65
2023/08/22 00:51:17;;;;;;;7.53;3.45;;;;;;;;;;5036357;28;20873;-65
2023/08/22 00:53:42;;;;;;;6.35;3.90;;;;;;;;;;5032973;28;20029;-64
2023/08/22 00:56:08;;;;;;;5.10;3.70;;;;;;;;;;5028501;28;20082;-65
2023/08/22 00:58:33;;;;;;;5.97;3.90;;;;;;;;;;5028436;28;20140;-65
2023/08/22 01:00:58;;;;;;;7.18;4.18;;;;;;;;;;5049963;28;20036;-65
2023/08/22 01:03:23;;;;;;;11.63;4.40;;;;;;;;;;5070090;28;20031;-64
2023/08/22 01:05:55;;;;;;;7.53;3.90;;;;;;;;;;5088061;28;20122;-64
2023/08/22 01:08:30;;;;;;;6.00;4.13;;;;;;;;;;5086152;28;20309;-64
2023/08/22 01:10:58;;;;;;;7.85;4.32;;;;;;;;;;5088458;28;20032;-64
2023/08/22 01:13:27;;;;;;;8.82;4.47;;;;;;;;;;5092354;28;20031;-65
2023/08/22 01:15:54;;;;;;;10.18;4.60;;;;;;;;;;5090244;28;20530;-65
2023/08/22 01:18:19;;;;;;;6.55;4.97;;;;;;;;;;5082472;28;20024;-65
2023/08/22 01:20:44;;;;;;;4.60;3.50;;;;;;;;;;5086529;28;20028;-65
2023/08/22 01:23:10;;;;;;;8.32;4.50;;;;;;;;;;5082545;28;20028;-65
2023/08/22 01:25:36;;;;;;;6.85;4.55;;;;;;;;;;5075835;28;20087;-65
2023/08/22 01:28:05;;;;;;;7.47;4.30;;;;;;;;;;5077485;28;20032;-66
2023/08/22 01:30:39;;;;;;;5.70;4.05;;;;;;;;;;5090651;28;20075;-65
2023/08/22 01:33:11;;;;;;;7.68;4.82;;;;;;;;;;5073800;28;20033;-65
2023/08/22 01:35:37;;;;;;;5.68;3.78;;;;;;;;;;5074092;28;20471;-65
2023/08/22 01:38:03;;;;;;;7.93;4.70;;;;;;;;;;5074320;28;20078;-65
2023/08/22 01:40:29;;;;;;;7.05;4.53;;;;;;;;;;5074448;28;20506;-65
2023/08/22 01:42:56;;;;;;;7.53;5.25;;;;;;;;;;5074230;28;20032;-66
2023/08/22 01:45:21;;;;;;;6.53;4.50;;;;;;;;;;5060341;28;20439;-65
2023/08/22 01:47:46;;;;;;;6.88;5.05;;;;;;;;;;5077949;28;20107;-65
2023/08/22 01:50:11;;;;;;;7.93;5.20;;;;;;;;;;5081936;28;20028;-65
2023/08/22 01:52:37;;;;;;;8.52;5.07;;;;;;;;;;5077638;28;20269;-65
2023/08/22 01:55:03;;;;;;;6.77;4.20;;;;;;;;;;5090869;28;20044;-66
2023/08/22 01:57:28;;;;;;;5.90;4.25;;;;;;;;;;5079496;28;20365;-65
2023/08/22 01:59:54;;;;;;;8.87;5.73;;;;;;;;;;5079291;28;20380;-66
2023/08/22 02:02:19;;;;;;;8.35;5.60;;;;;;;;;;5084981;28;20297;-65
2023/08/22 02:04:44;;;;;;;8.15;5.88;;;;;;;;;;5083171;28;20020;-65
2023/08/22 02:07:09;;;;;;;7.50;6.07;;;;;;;;;;5077142;28;20485;-65
2023/08/22 02:09:35;;;;;;;7.07;5.35;;;;;;;;;;5076439;28;20291;-66
2023/08/22 02:12:00;;;;;;;8.13;6.07;;;;;;;;;;5085290;28;20036;-64
2023/08/22 02:14:25;;;;;;;8.95;5.40;;;;;;;;;;5073621;28;20479;-64
2023/08/22 02:16:50;;;;;;;6.27;5.30;;;;;;;;;;5028046;28;20128;-64
2023/08/22 02:19:18;;;;;;;6.10;4.93;;;;;;;;;;5057420;28;20913;-65
2023/08/22 02:21:44;;;;;;;8.10;6.65;;;;;;;;;;5079327;28;20028;-64
2023/08/22 02:24:09;;;;;;;8.43;6.40;;;;;;;;;;5088719;28;20027;-66
2023/08/22 02:26:34;;;;;;;8.23;5.77;;;;;;;;;;5083368;28;20285;-66
2023/08/22 02:28:59;;;;;;;9.10;6.20;;;;;;;;;;5075828;28;20753;-65
2023/08/22 02:31:25;;;;;;;9.83;6.20;;;;;;;;;;5072807;28;20013;-66
2023/08/22 02:33:50;;;;;;;8.98;6.25;;;;;;;;;;5072934;28;20361;-66
2023/08/22 02:36:15;;;;;;;9.23;5.95;;;;;;;;;;5073433;28;20042;-66
2023/08/22 02:38:40;;;;;;;11.50;6.63;;;;;;;;;;5072767;28;20113;-66
2023/08/22 02:41:06;;;;;;;6.70;5.38;;;;;;;;;;5089602;28;20418;-66
2023/08/22 02:43:31;;;;;;;7.33;5.73;;;;;;;;;;5090034;28;20042;-66
2023/08/22 02:45:56;;;;;;;7.55;5.88;;;;;;;;;;5092043;28;20289;-66
2023/08/22 02:48:22;;;;;;;8.33;6.00;;;;;;;;;;5084414;28;20028;-66
2023/08/22 02:50:50;;;;;;;8.20;5.85;;;;;;;;;;5043454;28;21249;-66
2023/08/22 02:53:15;;;;;;;6.60;5.45;;;;;;;;;;5045696;28;20028;-66
2023/08/22 02:55:41;;;;;;;8.32;5.47;;;;;;;;;;5040203;28;20071;-66
2023/08/22 02:58:06;;;;;;;8.50;5.88;;;;;;;;;;5064548;28;20016;-66
2023/08/22 03:00:33;;;;;;;7.45;6.13;;;;;;;;;;5088757;28;20069;-67
2023/08/22 03:02:58;;;;;;;8.48;6.72;;;;;;;;;;5072370;28;20031;-66
2023/08/22 03:05:23;;;;;;;12.50;5.95;;;;;;;;;;5072070;28;20020;-65
2023/08/22 03:07:48;;;;;;;7.60;6.03;;;;;;;;;;5082704;28;20035;-65
2023/08/22 03:10:14;;;;;;;12.18;6.35;;;;;;;;;;5091254;28;20020;-66
2023/08/22 03:12:40;;;;;;;7.30;5.85;;;;;;;;;;5074071;28;20070;-66
2023/08/22 03:15:05;;;;;;;10.30;5.90;;;;;;;;;;5072133;28;20033;-66
2023/08/22 03:17:30;;;;;;;6.95;5.68;;;;;;;;;;5091707;28;20463;-68
2023/08/22 03:19:55;;;;;;;7.55;5.63;;;;;;;;;;5091132;28;20059;-68
2023/08/22 03:22:21;;;;;;;6.97;5.20;;;;;;;;;;5091560;28;20151;-71
2023/08/22 03:24:46;;;;;;;10.77;5.70;;;;;;;;;;5090710;28;20327;-71
2023/08/22 03:27:11;;;;;;;9.03;6.87;;;;;;;;;;5084539;28;20285;-71
2023/08/22 03:29:36;;;;;;;8.13;5.88;;;;;;;;;;5084820;28;20765;-71
2023/08/22 03:32:02;;;;;;;9.57;6.67;;;;;;;;;;5078899;28;20020;-71
2023/08/22 03:34:27;;;;;;;6.20;5.60;;;;;;;;;;5071430;28;20262;-71
2023/08/22 03:36:52;;;;;;;7.63;6.45;;;;;;;;;;5083343;28;20318;-72
2023/08/22 03:39:17;;;;;;;7.05;5.93;;;;;;;;;;5072145;28;20434;-71
2023/08/22 03:41:42;;;;;;;7.03;5.73;;;;;;;;;;5071426;28;20032;-71
2023/08/22 03:44:08;;;;;;;7.37;6.23;;;;;;;;;;5071849;28;20271;-71
2023/08/22 03:46:33;;;;;;;7.43;5.78;;;;;;;;;;5072304;28;20285;-71
2023/08/22 03:48:58;;;;;;;7.73;5.97;;;;;;;;;;5077839;28;20060;-71
2023/08/22 03:51:23;;;;;;;7.53;5.67;;;;;;;;;;5080386;28;20297;-71
2023/08/22 03:53:49;;;;;;;8.98;5.47;;;;;;;;;;5072708;28;20700;-71
2023/08/22 03:56:15;;;;;;;7.82;5.65;;;;;;;;;;5083199;28;20035;-71
2023/08/22 03:58:40;;;;;;;6.93;5.38;;;;;;;;;;5067983;28;20078;-71
2023/08/22 04:01:05;;;;;;;7.93;5.20;;;;;;;;;;5088188;28;20027;-71
2023/08/22 04:03:31;;;;;;;8.83;5.93;;;;;;;;;;5088221;28;20315;-72
2023/08/22 04:05:58;;;;;;;8.18;5.75;;;;;;;;;;5086080;28;20385;-71
2023/08/22 04:08:23;;;;;;;7.43;5.10;;;;;;;;;;5075255;28;20107;-69
2023/08/22 04:10:48;;;;;;;6.63;5.88;;;;;;;;;;5070757;28;20122;-69
2023/08/22 04:13:13;;;;;;;9.27;6.10;;;;;;;;;;5080705;28;20031;-69
2023/08/22 04:15:39;;;;;;;8.83;5.97;;;;;;;;;;5077902;28;20294;-69
2023/08/22 04:18:05;;;;;;;10.02;5.20;;;;;;;;;;5081543;28;20285;-69
2023/08/22 04:20:30;;;;;;;6.32;5.05;;;;;;;;;;5072261;28;20143;-71
2023/08/22 04:22:55;;;;;;;8.40;5.80;;;;;;;;;;5073452;28;20538;-71
2023/08/22 04:25:20;;;;;;;11.80;5.20;;;;;;;;;;5073825;28;20031;-71
2023/08/22 04:27:46;;;;;;;7.60;5.13;;;;;;;;;;5071149;28;20301;-71
2023/08/22 04:30:11;;;;;;;6.00;4.88;;;;;;;;;;5076067;28;20110;-70
2023/08/22 04:32:36;;;;;;;7.53;4.82;;;;;;;;;;5083410;28;20562;-71
2023/08/22 04:35:02;;;;;;;6.03;5.32;;;;;;;;;;5077360;28;20383;-69
2023/08/22 04:37:27;;;;;;;14.43;5.78;;;;;;;;;;5092623;28;20012;-71
2023/08/22 04:39:52;;;;;;;7.95;5.47;;;;;;;;;;5085918;28;20024;-71
2023/08/22 04:42:17;;;;;;;7.57;5.15;;;;;;;;;;5083756;28;20059;-71
2023/08/22 04:44:43;;;;;;;8.85;5.88;;;;;;;;;;5089983;28;20068;-71
2023/08/22 04:47:08;;;;;;;6.68;5.18;;;;;;;;;;5085289;28;20438;-71
2023/08/22 04:49:33;;;;;;;7.47;6.07;;;;;;;;;;5090130;28;20419;-71
2023/08/22 04:51:59;;;;;;;7.30;5.35;;;;;;;;;;5084832;28;20040;-71
2023/08/22 04:54:24;;;;;;;8.30;5.30;;;;;;;;;;5089248;28;20020;-71
2023/08/22 04:56:49;;;;;;;8.18;4.60;;;;;;;;;;5076354;28;20532;-71
2023/08/22 04:59:14;;;;;;;7.55;5.55;;;;;;;;;;5089209;28;20039;-71
2023/08/22 05:01:40;;;;;;;10.52;5.85;;;;;;;;;;5085523;28;20392;-70
2023/08/22 05:04:05;;;;;;;7.57;6.28;;;;;;;;;;5089864;28;20024;-71
2023/08/22 05:06:30;;;;;;;10.77;5.97;;;;;;;;;;5076942;28;20032;-71
2023/08/22 05:08:56;;;;;;;8.43;6.10;;;;;;;;;;5093641;28;20109;-70
2023/08/22 05:11:21;;;;;;;7.40;5.25;;;;;;;;;;5062618;28;20336;-71
2023/08/22 05:13:46;;;;;;;8.00;5.78;;;;;;;;;;5093701;28;20023;-71
2023/08/22 05:16:12;;;;;;;10.57;5.97;;;;;;;;;;5093215;28;20016;-70
2023/08/22 05:18:37;;;;;;;9.68;6.53;;;;;;;;;;5093872;28;20266;-71
2023/08/22 05:21:02;;;;;;;7.03;6.13;;;;;;;;;;5093327;28;20052;-70
2023/08/22 05:23:28;;;;;;;11.27;6.07;;;;;;;;;;5093097;28;20752;-71
2023/08/22 05:25:53;;;;;;;8.50;6.28;;;;;;;;;;5079791;28;20035;-71
2023/08/22 05:28:18;;;;;;;10.20;7.50;;;;;;;;;;5092141;28;20062;-71
2023/08/22 05:30:43;;;;;;;7.47;6.77;;;;;;;;;;5074734;28;20032;-70
2023/08/22 05:33:09;;;;;;;9.85;7.03;;;;;;;;;;5076047;28;20274;-71
2023/08/22 05:35:34;;;;;;;8.32;6.45;;;;;;;;;;5090749;28;20581;-70
2023/08/22 05:37:59;;;;;;;7.93;6.75;;;;;;;;;;5092601;28;20032;-71
2023/08/22 05:40:25;;;;;;;8.87;7.40;;;;;;;;;;5090438;28;20091;-71
2023/08/22 05:42:51;;;;;;;10.38;7.53;;;;;;;;;;5092229;28;20290;-71
2023/08/22 05:45:16;;;;;;;10.70;7.57;;;;;;;;;;5077977;28;20030;-71
2023/08/22 05:47:42;;;;;;;9.65;7.20;;;;;;;;;;5091584;28;20043;-71
2023/08/22 05:50:08;;;;;;;10.00;8.23;;;;;;;;;;5089948;28;20035;-71
2023/08/22 05:52:33;;;;;;;10.60;8.15;;;;;;;;;;5091708;28;20090;-71
2023/08/22 05:54:58;;;;;;;8.90;7.97;;;;;;;;;;5078827;28;20107;-71
2023/08/22 05:57:23;;;;;;;13.77;8.07;;;;;;;;;;5092871;28;20356;-71
2023/08/22 05:59:49;;;;;;;11.32;7.57;;;;;;;;;;5091071;28;20090;-71
2023/08/22 06:02:15;;;;;;;10.45;7.78;;;;;;;;;;5085969;28;20085;-71
2023/08/22 06:04:40;;;;;;;10.63;7.47;;;;;;;;;;5031798;28;20025;-71
2023/08/22 06:07:05;;;;;;;9.68;7.68;;;;;;;;;;5043180;28;20077;-71
2023/08/22 06:09:31;;;;;;;12.18;8.23;;;;;;;;;;5037430;28;20032;-71
2023/08/22 06:11:56;;;;;;;12.20;9.70;;;;;;;;;;5033999;28;20334;-71
2023/08/22 06:14:21;;;;;;;13.05;10.38;;;;;;;;;;5044727;28;20102;-71
2023/08/22 06:16:46;;;;;;;18.10;10.73;;;;;;;;;;5033232;28;20067;-70
2023/08/22 06:19:12;;;;;;;12.38;11.05;;;;;;;;;;5044228;28;20024;-71
2023/08/22 06:21:37;;;;;;;17.27;11.37;;;;;;;;;;5065319;28;20555;-71
2023/08/22 06:24:04;;;;;;;15.47;12.10;;;;;;;;;;5080694;28;20667;-71
2023/08/22 06:26:29;;;;;;;15.75;13.45;;;;;;;;;;5077184;28;20843;-71
2023/08/22 06:28:55;;;;;;;14.30;11.97;;;;;;;;;;5080825;28;20031;-71
2023/08/22 06:31:20;;;;;;;14.67;11.27;;;;;;;;;;5073887;28;20783;-71
2023/08/22 06:33:45;;;;;;;15.87;12.67;;;;;;;;;;5078677;28;20385;-71
2023/08/22 06:36:10;;;;;;;13.70;12.23;;;;;;;;;;5075977;28;20306;-71
2023/08/22 06:38:35;;;;;;;15.57;10.63;;;;;;;;;;5079189;28;20254;-71
2023/08/22 06:41:04;;;;;;;15.07;12.18;;;;;;;;;;5076318;28;20310;-71
2023/08/22 06:43:29;;;;;;;16.15;10.80;;;;;;;;;;5079800;28;20050;-71
2023/08/22 06:45:57;;;;;;;11.43;9.93;;;;;;;;;;5076723;28;20020;-71
2023/08/22 06:48:23;;;;;;;19.13;10.90;;;;;;;;;;5087930;28;20290;-71
2023/08/22 06:50:48;;;;;;;17.02;10.02;;;;;;;;;;5080127;28;20078;-71
2023/08/22 06:53:14;;;;;;;10.23;8.23;;;;;;;;;;5083583;28;20019;-71
2023/08/22 06:55:39;;;;;;;10.63;8.23;;;;;;;;;;5081861;28;20055;-71
2023/08/22 06:58:04;;;;;;;12.73;9.87;;;;;;;;;;5083706;28;20351;-71
2023/08/22 07:00:29;;;;;;;10.80;8.57;;;;;;;;;;5079661;28;20271;-71
2023/08/22 07:02:55;;;;;;;10.73;8.30;;;;;;;;;;5081954;28;20056;-71
2023/08/22 07:05:21;;;;;;;11.67;8.43;;;;;;;;;;5078702;28;20027;-71
2023/08/22 07:07:46;;;;;;;13.38;9.55;;;;;;;;;;5072473;28;20293;-71
2023/08/22 07:10:12;;;;;;;10.57;9.48;;;;;;;;;;5080051;28;20028;-71
2023/08/22 07:12:37;;;;;;;16.00;9.95;;;;;;;;;;5089178;28;20024;-71
2023/08/22 07:15:05;;;;;;;12.63;9.15;;;;;;;;;;5089692;28;20478;-71
2023/08/22 07:17:30;;;;;;;13.50;8.60;;;;;;;;;;5087349;28;20025;-71
2023/08/22 07:19:56;;;;;;;10.68;8.85;;;;;;;;;;5080986;28;20032;-71
2023/08/22 07:22:21;;;;;;;13.32;9.00;;;;;;;;;;5073604;28;20021;-72
2023/08/22 07:24:46;;;;;;;11.10;7.87;;;;;;;;;;5072835;28;20048;-72
2023/08/22 07:27:12;;;;;;;11.15;8.57;;;;;;;;;;5074847;28;20286;-72
2023/08/22 07:29:37;;;;;;;13.80;9.35;;;;;;;;;;5087551;28;20039;-73
2023/08/22 07:32:03;;;;;;;12.50;7.85;;;;;;;;;;5088822;28;20042;-69
2023/08/22 07:34:28;;;;;;;10.88;8.05;;;;;;;;;;5090048;28;20024;-70
2023/08/22 07:36:53;;;;;;;10.85;8.25;;;;;;;;;;5071026;28;20019;-71
2023/08/22 07:39:19;;;;;;;13.63;7.97;;;;;;;;;;5089972;28;20031;-71
2023/08/22 07:41:45;;;;;;;8.25;7.40;;;;;;;;;;5089629;28;20286;-70
2023/08/22 07:44:10;;;;;;;9.90;7.30;;;;;;;;;;5090523;28;20023;-71
2023/08/22 07:46:35;;;;;;;11.43;6.97;;;;;;;;;;5090408;28;20543;-71
2023/08/22 07:49:00;;;;;;;11.23;7.37;;;;;;;;;;5091337;28;20864;-71
2023/08/22 07:51:26;;;;;;;10.65;7.47;;;;;;;;;;5089242;28;20294;-70
2023/08/22 07:53:52;;;;;;;8.07;6.28;;;;;;;;;;5090666;28;20020;-71
2023/08/22 07:56:17;;;;;;;12.55;7.28;;;;;;;;;;5085122;28;20026;-71
2023/08/22 07:58:43;;;;;;;12.20;9.02;;;;;;;;;;5082339;28;20474;-72
2023/08/22 08:01:09;;;;;;;12.02;7.70;;;;;;;;;;5081144;28;20025;-71
2023/08/22 08:03:34;;;;;;;11.60;7.40;;;;;;;;;;5081965;28;20090;-69
2023/08/22 08:05:59;;;;;;;10.95;6.78;;;;;;;;;;5074187;28;20052;-73
2023/08/22 08:08:24;;;;;;;7.65;5.22;;;;;;;;;;5087477;28;20107;-71
2023/08/22 08:10:50;;;;;;;8.83;6.17;;;;;;;;;;5088508;28;21579;-69
2023/08/22 08:13:15;;;;;;;6.63;4.80;;;;;;;;;;5071342;28;20271;-71
2023/08/22 08:15:41;;;;;;;11.25;6.40;;;;;;;;;;5071525;28;20061;-71
2023/08/22 08:18:06;;;;;;;5.88;4.53;;;;;;;;;;5071384;28;20043;-70
2023/08/22 08:20:32;;;;;;;6.50;4.85;;;;;;;;;;5071992;28;20040;-71
2023/08/22 08:22:57;;;;;;;7.88;4.97;;;;;;;;;;5072238;28;20055;-73
2023/08/22 08:25:22;;;;;;;6.63;4.55;;;;;;;;;;5075261;28;20043;-73
2023/08/22 08:27:47;;;;;;;11.60;4.93;;;;;;;;;;5073660;28;20032;-72
2023/08/22 08:30:13;;;;;;;7.80;4.83;;;;;;;;;;5076462;28;20020;-72
2023/08/22 08:32:39;;;;;;;6.72;4.57;;;;;;;;;;5073907;28;20306;-72
2023/08/22 08:35:05;;;;;;;10.85;4.75;;;;;;;;;;5087158;28;20044;-72
2023/08/22 08:37:30;;;;;;;7.55;3.72;;;;;;;;;;5080278;28;20351;-72
2023/08/22 08:39:55;;;;;;;5.45;3.60;;;;;;;;;;5085146;28;20055;-72
2023/08/22 08:42:21;;;;;;;9.27;3.43;;;;;;;;;;5086584;28;20027;-72
2023/08/22 08:44:47;;;;;;;11.45;4.53;;;;;;;;;;5090787;28;20351;-72
2023/08/22 08:47:13;;;;;;;7.97;3.83;;;;;;;;;;5088732;28;20085;-72
2023/08/22 08:49:38;;;;;;;7.47;4.15;;;;;;;;;;5087063;28;20028;-72
2023/08/22 08:52:04;;;;;;;4.57;3.50;;;;;;;;;;5079755;28;20471;-72
2023/08/22 08:54:29;;;;;;;8.32;3.95;;;;;;;;;;5079787;28;20343;-73
2023/08/22 08:56:55;;;;;;;7.65;3.17;;;;;;;;;;5082371;28;20491;-72
2023/08/22 08:59:21;;;;;;;6.13;3.20;;;;;;;;;;5088996;28;20028;-72
2023/08/22 09:01:46;;;;;;;5.32;2.70;;;;;;;;;;5082087;28;20459;-72
2023/08/22 09:04:11;;;;;;;10.45;3.20;;;;;;;;;;5085596;28;20028;-72
2023/08/22 09:06:37;;;;;;;5.07;2.92;;;;;;;;;;5076063;28;20027;-72
2023/08/22 09:09:04;;;;;;;5.47;3.22;;;;;;;;;;5089992;28;20028;-70
2023/08/22 09:11:29;;;;;;;5.88;3.22;;;;;;;;;;5077584;28;20024;-71
2023/08/22 09:13:55;;;;;;;5.07;3.07;;;;;;;;;;5090356;28;20036;-72
2023/08/22 09:16:22;;;;;;;6.38;2.80;;;;;;;;;;5084160;28;20289;-73
2023/08/22 09:18:47;;;;;;;7.97;3.15;;;;;;;;;;5083983;28;20110;-73
2023/08/22 09:21:14;;;;;;;5.40;2.53;;;;;;;;;;5092336;28;20103;-70
2023/08/22 09:23:41;;;;;;;6.07;3.00;;;;;;;;;;5091000;28;20281;-71
2023/08/22 09:26:07;;;;;;;6.47;3.20;;;;;;;;;;5078347;28;20032;-71
2023/08/22 09:28:38;;;;;;;4.90;2.60;;;;;;;;;;5089046;28;20040;-70
2023/08/22 09:31:03;;;;;;;5.28;3.05;;;;;;;;;;5086315;28;20496;-70
2023/08/22 09:33:28;;;;;;;5.20;2.77;;;;;;;;;;5087519;28;20051;-72
2023/08/22 09:35:57;;;;;;;6.63;3.13;;;;;;;;;;5082168;28;20656;-72
2023/08/22 09:38:22;;;;;;;6.90;3.30;;;;;;;;;;5081842;28;20285;-72
2023/08/22 09:40:51;;;;;;;4.15;2.55;;;;;;;;;;5085087;28;20032;-72
2023/08/22 09:43:19;;;;;;;7.13;3.22;;;;;;;;;;5087739;28;20039;-72
2023/08/22 09:45:44;;;;;;;6.47;2.47;;;;;;;;;;5089318;28;20031;-72
2023/08/22 09:48:13;;;;;;;4.78;2.95;;;;;;;;;;5087033;28;20044;-72
2023/08/22 09:50:41;;;;;;;5.15;2.60;;;;;;;;;;5093138;28;20024;-72
2023/08/22 09:53:06;;;;;;;5.00;2.47;;;;;;;;;;5088942;28;20474;-73
2023/08/22 09:55:33;;;;;;;10.07;3.30;;;;;;;;;;5091542;28;20042;-72
2023/08/22 09:57:59;;;;;;;7.13;3.30;;;;;;;;;;5088609;28;20078;-72
2023/08/22 10:00:26;;;;;;;7.20;2.80;;;;;;;;;;5091648;28;20487;-74
2023/08/22 10:02:52;;;;;;;5.97;2.90;;;;;;;;;;5089897;28;20020;-72
2023/08/22 10:05:17;;;;;;;5.20;3.08;;;;;;;;;;5083214;28;20816;-72
2023/08/22 10:07:43;;;;;;;6.72;2.60;;;;;;;;;;5073388;28;20056;-72
2023/08/22 10:10:09;;;;;;;4.90;3.10;;;;;;;;;;5078238;28;20024;-71
2023/08/22 10:12:35;;;;;;;9.07;3.72;;;;;;;;;;5084082;28;20290;-72
2023/08/22 10:15:03;;;;;;;6.97;3.30;;;;;;;;;;5073973;28;20028;-72
2023/08/22 10:17:29;;;;;;;5.32;3.10;;;;;;;;;;5078105;28;20020;-71
2023/08/22 10:20:04;;;;;;;5.15;2.45;;;;;;;;;;5093452;28;20035;-71
2023/08/22 10:22:30;;;;;;;6.40;2.63;;;;;;;;;;5074891;28;20032;-71
2023/08/22 10:25:01;;;;;;;10.32;3.40;;;;;;;;;;5086006;28;20025;-71
2023/08/22 10:27:28;;;;;;;7.47;2.88;;;;;;;;;;5086509;28;20029;-71
2023/08/22 10:30:25;;;;;;;7.30;4.25;;;;;;;;;;5081250;28;20035;-71
2023/08/22 10:33:04;;;;;;;10.52;3.75;;;;;;;;;;5037560;28;20502;-71
2023/08/22 10:35:29;;;;;;;6.82;3.67;;;;;;;;;;5072709;28;20179;-70
2023/08/22 10:37:55;;;;;;;7.53;3.97;;;;;;;;;;5072703;28;20107;-71
2023/08/22 10:40:22;;;;;;;8.63;4.30;;;;;;;;;;5080091;28;20059;-71
2023/08/22 10:42:52;;;;;;;6.40;3.67;;;;;;;;;;5076468;28;20032;-72
2023/08/22 10:45:18;;;;;;;8.18;4.07;;;;;;;;;;5081636;28;20459;-71
2023/08/22 10:47:47;;;;;;;5.25;3.10;;;;;;;;;;5076303;28;20032;-71
2023/08/22 10:50:12;;;;;;;6.10;2.97;;;;;;;;;;5080903;28;20020;-71
2023/08/22 10:52:38;;;;;;;6.82;3.13;;;;;;;;;;5081208;28;20099;-72
2023/08/22 10:55:10;;;;;;;5.70;2.67;;;;;;;;;;5076340;28;20056;-71
2023/08/22 10:57:40;;;;;;;5.38;3.20;;;;;;;;;;5082368;28;20016;-71
2023/08/22 11:00:13;;;;;;;8.18;3.20;;;;;;;;;;5076455;28;20344;-71
2023/08/22 11:02:39;;;;;;;5.65;2.78;;;;;;;;;;5088405;28;20031;-72
2023/08/22 11:05:11;;;;;;;6.43;2.60;;;;;;;;;;5078738;28;20024;-72
2023/08/22 11:07:36;;;;;;;6.20;3.08;;;;;;;;;;5087211;28;20027;-72
2023/08/22 11:10:01;;;;;;;4.32;2.13;;;;;;;;;;5082871;28;20036;-72
2023/08/22 11:12:28;;;;;;;4.25;2.60;;;;;;;;;;5086957;28;20052;-71
2023/08/22 11:14:54;;;;;;;6.78;3.30;;;;;;;;;;5081099;28;20024;-72
2023/08/22 11:17:20;;;;;;;5.35;2.67;;;;;;;;;;5091670;28;20094;-73
2023/08/22 11:19:46;;;;;;;12.13;3.10;;;;;;;;;;5090837;28;20103;-72
2023/08/22 11:22:12;;;;;;;7.47;2.22;;;;;;;;;;5089892;28;20471;-73
2023/08/22 11:24:41;;;;;;;4.25;2.50;;;;;;;;;;5082683;28;20031;-73
2023/08/22 11:27:06;;;;;;;7.07;2.45;;;;;;;;;;5083900;28;20032;-72
2023/08/22 11:29:42;;;;;;;7.27;1.77;;;;;;;;;;5083033;28;20028;-72
2023/08/22 11:32:23;;;;;;;4.07;2.00;;;;;;;;;;5073998;28;20288;-73
2023/08/22 11:34:52;;;;;;;4.72;1.88;;;;;;;;;;5050669;28;20016;-73
2023/08/22 11:37:18;;;;;;;4.60;2.03;;;;;;;;;;5040302;28;20025;-72
2023/08/22 11:39:47;;;;;;;3.75;1.65;;;;;;;;;;5036805;28;20063;-72
2023/08/22 11:42:13;;;;;;;3.75;1.30;;;;;;;;;;5077634;28;20042;-71
2023/08/22 11:44:54;;;;;;;4.20;2.17;;;;;;;;;;5081508;28;20120;-71
2023/08/22 11:47:19;;;;;;;3.25;1.60;;;;;;;;;;5081363;28;20433;-71
2023/08/22 11:49:47;;;;;;;3.50;1.87;;;;;;;;;;5077373;28;20112;-73
2023/08/22 11:52:13;;;;;;;3.25;1.65;;;;;;;;;;5088276;28;20315;-71
2023/08/22 11:54:44;;;;;;;3.30;1.60;;;;;;;;;;5077086;28;20029;-71
2023/08/22 11:57:10;;;;;;;3.42;1.45;;;;;;;;;;5078307;28;20300;-71
2023/08/22 11:59:35;;;;;;;6.30;1.67;;;;;;;;;;5077074;28;20468;-71
2023/08/22 12:02:01;;;;;;;2.83;1.08;;;;;;;;;;5081269;28;20178;-71
2023/08/22 12:04:39;;;;;;;3.60;1.27;;;;;;;;;;5076587;28;20038;-71
2023/08/22 12:07:04;;;;;;;3.90;1.52;;;;;;;;;;5078510;28;20028;-71
2023/08/22 12:09:29;;;;;;;2.37;1.03;;;;;;;;;;5067081;28;20085;-72
2023/08/22 12:12:06;;;;;;;4.50;1.08;;;;;;;;;;5077012;28;20024;-71
2023/08/22 12:14:32;;;;;;;2.63;1.25;;;;;;;;;;5071381;28;20418;-70
2023/08/22 12:16:57;;;;;;;2.50;1.30;;;;;;;;;;5077296;28;20055;-71
2023/08/22 12:19:22;;;;;;;2.23;1.07;;;;;;;;;;5072150;28;20485;-72
2023/08/22 12:21:47;;;;;;;3.53;1.47;;;;;;;;;;5060131;28;20020;-72
2023/08/22 12:24:12;;;;;;;5.60;1.50;;;;;;;;;;5041322;28;20090;-67
2023/08/22 12:26:38;;;;;;;3.60;1.20;;;;;;;;;;5033797;28;20270;-69
2023/08/22 12:29:03;;;;;;;3.23;1.67;;;;;;;;;;5036174;28;20881;-70
2023/08/22 12:31:31;;;;;;;2.60;1.10;;;;;;;;;;5046516;28;20020;-71
2023/08/22 12:33:56;;;;;;;5.72;1.45;;;;;;;;;;5036961;28;20328;-70
2023/08/22 12:36:22;;;;;;;2.30;1.13;;;;;;;;;;5070597;28;20020;-70
2023/08/22 12:38:47;;;;;;;3.38;1.50;;;;;;;;;;5084358;28;20028;-70
2023/08/22 12:41:12;;;;;;;2.93;1.53;;;;;;;;;;5082518;28;20020;-70
2023/08/22 12:43:37;;;;;;;7.68;1.73;;;;;;;;;;5083758;28;20030;-70
2023/08/22 12:46:03;;;;;;;5.80;1.37;;;;;;;;;;5082324;28;20020;-72
2023/08/22 12:48:28;;;;;;;3.57;1.63;;;;;;;;;;5084274;28;20292;-71
2023/08/22 12:50:53;;;;;;;3.15;1.38;;;;;;;;;;5084324;28;20317;-72
2023/08/22 12:53:18;;;;;;;4.70;1.50;;;;;;;;;;5086067;28;20020;-71
2023/08/22 12:55:44;;;;;;;9.33;1.83;;;;;;;;;;5090125;28;20379;-71
2023/08/22 12:58:09;;;;;;;4.25;1.42;;;;;;;;;;5089719;28;20289;-71
2023/08/22 13:00:34;;;;;;;2.63;1.30;;;;;;;;;;5087655;28;20035;-70
2023/08/22 13:03:00;;;;;;;3.72;1.60;;;;;;;;;;5087580;28;20421;-71
2023/08/22 13:05:25;;;;;;;5.85;1.55;;;;;;;;;;5082209;28;20027;-71
2023/08/22 13:07:50;;;;;;;2.63;1.10;;;;;;;;;;5073870;28;20024;-70
2023/08/22 13:10:16;;;;;;;2.90;1.40;;;;;;;;;;5073662;28;20630;-70
2023/08/22 13:12:41;;;;;;;7.10;1.47;;;;;;;;;;5087190;28;20286;-68
2023/08/22 13:15:06;;;;;;;2.88;1.05;;;;;;;;;;5074783;28;20078;-71
2023/08/22 13:17:32;;;;;;;5.05;1.05;;;;;;;;;;5088020;28;20063;-71
2023/08/22 13:19:57;;;;;;;3.42;1.10;;;;;;;;;;5092035;28;20034;-71
2023/08/22 13:22:22;;;;;;;3.27;0.93;;;;;;;;;;5090044;28;20040;-70
2023/08/22 13:24:48;;;;;;;1.75;0.80;;;;;;;;;;5091591;28;20274;-68
2023/08/22 13:27:13;;;;;;;3.63;1.20;;;;;;;;;;5088988;28;20074;-70
2023/08/22 13:29:38;;;;;;;2.03;0.80;;;;;;;;;;5082979;28;20028;-68
2023/08/22 13:32:04;;;;;;;2.80;0.75;;;;;;;;;;5090572;28;20769;-69
2023/08/22 13:34:29;;;;;;;2.20;0.85;;;;;;;;;;5091752;28;20027;-70
2023/08/22 13:36:54;;;;;;;2.77;1.10;;;;;;;;;;5090500;28;20028;-72
2023/08/22 13:39:19;;;;;;;2.07;0.70;;;;;;;;;;5065852;28;20028;-71
2023/08/22 13:41:46;;;;;;;1.50;0.60;;;;;;;;;;5088643;28;20617;-70
2023/08/22 13:44:11;;;;;;;2.38;0.90;;;;;;;;;;5090698;28;20358;-69
2023/08/22 13:46:37;;;;;;;2.60;0.90;;;;;;;;;;5088787;28;20487;-70
2023/08/22 13:49:02;;;;;;;4.03;0.97;;;;;;;;;;5091458;28;20294;-70
2023/08/22 13:51:27;;;;;;;1.63;0.73;;;;;;;;;;5091537;28;20040;-70
2023/08/22 13:53:52;;;;;;;2.30;0.82;;;;;;;;;;5084787;28;20027;-71
2023/08/22 13:56:19;;;;;;;2.40;0.65;;;;;;;;;;5085070;28;20017;-71
2023/08/22 13:58:44;;;;;;;2.22;0.77;;;;;;;;;;5090855;28;20103;-71
2023/08/22 14:01:10;;;;;;;1.70;0.80;;;;;;;;;;5088432;28;20124;-71
2023/08/22 14:03:35;;;;;;;1.53;0.63;;;;;;;;;;5091041;28;20663;-71
2023/08/22 14:06:03;;;;;;;2.13;0.65;;;;;;;;;;5077942;28;20028;-72
2023/08/22 14:08:28;;;;;;;2.38;0.60;;;;;;;;;;5080468;28;20391;-72
2023/08/22 14:10:56;;;;;;;2.33;0.73;;;;;;;;;;5072015;28;20060;-72
2023/08/22 14:13:21;;;;;;;2.35;0.80;;;;;;;;;;5071893;28;20467;-71
2023/08/22 14:15:48;;;;;;;2.23;0.80;;;;;;;;;;5072649;28;20023;-72
2023/08/22 14:18:13;;;;;;;2.22;0.75;;;;;;;;;;5072362;28;20052;-71
2023/08/22 14:20:41;;;;;;;3.00;0.87;;;;;;;;;;5072688;28;20048;-71
2023/08/22 14:23:06;;;;;;;2.28;0.73;;;;;;;;;;5073106;28;20017;-71
2023/08/22 14:25:31;;;;;;;2.63;0.80;;;;;;;;;;5085996;28;20027;-72
2023/08/22 14:27:56;;;;;;;2.53;0.80;;;;;;;;;;5072863;28;20027;-72
2023/08/22 14:30:22;;;;;;;1.80;0.70;;;;;;;;;;5073824;28;20474;-71
2023/08/22 14:32:47;;;;;;;2.80;0.80;;;;;;;;;;5074941;28;20575;-72